| time (UTC) | temp C | wind direction | speed KPH | gust KPH | rain 1hr cm | rain 24hr cm | rain mn cm | humidity % | barometer mb |
| 20260504050743 | 19 | 181 | 1.6 | 4.8 | 0.00 | 0.00 | 0.00 | 67 | 1019.6 |
| 20260504050242 | 18 | 189 | 3.2 | 6.4 | 0.00 | 0.00 | 0.00 | 67 | 1019.6 |
| 20260504045739 | 18 | 158 | 0.0 | 0.0 | 0.00 | 0.00 | 0.00 | 73 | 1019.6 |
| 20260504045238 | 17 | 165 | 0.0 | 1.6 | 0.00 | 0.00 | 0.00 | 77 | 1019.5 |
| 20260504044736 | 18 | 5 | 0.0 | 0.0 | 0.00 | 0.00 | 0.00 | 75 | 1019.3 |
| 20260504044234 | 18 | 138 | 0.0 | 0.0 | 0.00 | 0.00 | 0.00 | 72 | 1019.3 |
| 20260504043731 | 20 | 147 | 0.0 | 1.6 | 0.00 | 0.00 | 0.00 | 69 | 1019.3 |
| 20260504043228 | 20 | 169 | 4.8 | 4.8 | 0.00 | 0.00 | 0.00 | 65 | 1019.4 |
| 20260504042725 | 20 | 196 | 0.0 | 4.8 | 0.00 | 0.00 | 0.00 | 68 | 1019.1 |
| 20260504042222 | 20 | 159 | 0.0 | 4.8 | 0.00 | 0.00 | 0.00 | 68 | 1019.3 |
| 20260504041718 | 20 | 220 | 1.6 | 4.8 | 0.00 | 0.00 | 0.00 | 67 | 1019.3 |
| 20260504041214 | 20 | 210 | 1.6 | 6.4 | 0.00 | 0.00 | 0.00 | 66 | 1019.1 |
| 20260504040711 | 20 | 229 | 1.6 | 3.2 | 0.00 | 0.00 | 0.00 | 66 | 1018.9 |
| 20260504040208 | 20 | 171 | 3.2 | 3.2 | 0.00 | 0.00 | 0.00 | 65 | 1019.1 |
| 20260504035703 | 20 | 246 | 0.0 | 3.2 | 0.00 | 0.00 | 0.00 | 64 | 1019.2 |
| 20260504035201 | 20 | 205 | 0.0 | 4.8 | 0.00 | 0.00 | 0.00 | 63 | 1019.3 |
| 20260504034659 | 20 | 146 | 1.6 | 6.4 | 0.00 | 0.00 | 0.00 | 62 | 1019.1 |
| 20260504034155 | 20 | 246 | 3.2 | 4.8 | 0.00 | 0.00 | 0.00 | 61 | 1019.1 |
| 20260504033653 | 20 | 155 | 1.6 | 6.4 | 0.00 | 0.00 | 0.00 | 61 | 1018.9 |
| 20260504033150 | 19 | 247 | 0.0 | 3.2 | 0.00 | 0.00 | 0.00 | 63 | 1019.2 |
| 20260504032647 | 18 | 197 | 0.0 | 1.6 | 0.00 | 0.00 | 0.00 | 66 | 1018.9 |
| 20260504032144 | -17 | 0.0 | 0.0 | 0.00 | 0.00 | 0.00 | 1019.2 | ||
| 20260504031641 | 18 | 122 | 0.0 | 0.0 | 0.00 | 0.00 | 0.00 | 70 | 1019.0 |
| 20260504031137 | 18 | 122 | 0.0 | 0.0 | 0.00 | 0.00 | 0.00 | 70 | 1019.2 |
| 20260504030634 | -17 | 0.0 | 0.0 | 0.00 | 0.00 | 0.00 | 1019.3 | ||
| 20260504030131 | 18 | 120 | 0.0 | 0.0 | 0.00 | 0.00 | 0.00 | 68 | 1019.2 |
| 20260504025628 | 18 | 120 | 0.0 | 0.0 | 0.00 | 0.00 | 0.00 | 68 | 1019.1 |
| 20260504025125 | 18 | 188 | 0.0 | 0.0 | 0.00 | 0.00 | 0.00 | 69 | 1019.2 |
| 20260504024622 | 18 | 188 | 0.0 | 0.0 | 0.00 | 0.00 | 0.00 | 69 | 1019.4 |
| 20260504024118 | 18 | 212 | 0.0 | 0.0 | 0.00 | 0.00 | 0.00 | 68 | 1019.2 |
| 20260504023615 | 18 | 212 | 0.0 | 0.0 | 0.00 | 0.00 | 0.00 | 68 | 1019.0 |
| 20260504023111 | 18 | 139 | 0.0 | 1.6 | 0.00 | 0.00 | 0.00 | 69 | 1019.3 |
| 20260504022608 | 18 | 139 | 0.0 | 1.6 | 0.00 | 0.00 | 0.00 | 69 | 1019.1 |
| 20260504022103 | -17 | 0.0 | 0.0 | 0.00 | 0.00 | 0.00 | 1019.2 | ||
| 20260504021602 | -17 | 0.0 | 0.0 | 0.00 | 0.00 | 0.00 | 1019.1 | ||
| 20260504021058 | -17 | 0.0 | 0.0 | 0.00 | 0.00 | 0.00 | 1018.9 | ||
| 20260504020555 | -17 | 0.0 | 0.0 | 0.00 | 0.00 | 0.00 | 1018.7 | ||
| 20260504020051 | -17 | 0.0 | 0.0 | 0.00 | 0.00 | 0.00 | 1018.7 | ||
| 20260504015548 | -17 | 0.0 | 0.0 | 0.00 | 0.00 | 0.00 | 1018.7 | ||
| 20260504015044 | -17 | 0.0 | 0.0 | 0.00 | 0.00 | 0.00 | 1018.7 | ||
| 20260504014540 | -17 | 0.0 | 0.0 | 0.00 | 0.00 | 0.00 | 1018.7 | ||
| 20260504014038 | -17 | 0.0 | 0.0 | 0.00 | 0.00 | 0.00 | 1018.4 | ||
| 20260504013535 | -17 | 0.0 | 0.0 | 0.00 | 0.00 | 0.00 | 1018.5 | ||
| 20260504013032 | -17 | 0.0 | 0.0 | 0.00 | 0.00 | 0.00 | 1018.5 | ||
| 20260504012529 | -17 | 0.0 | 0.0 | 0.00 | 0.00 | 0.00 | 1018.5 | ||
| 20260504012027 | -17 | 0.0 | 0.0 | 0.00 | 0.00 | 0.00 | 1018.4 | ||
| 20260504011523 | 18 | 190 | 0.0 | 0.0 | 0.00 | 0.00 | 0.00 | 65 | 1018.4 |
| 20260504011020 | 18 | 190 | 0.0 | 0.0 | 0.00 | 0.00 | 0.00 | 65 | 1018.3 |
| 20260504010515 | 18 | 12 | 0.0 | 0.0 | 0.00 | 0.00 | 0.00 | 63 | 1018.3 |
| 20260504010011 | 18 | 12 | 0.0 | 0.0 | 0.00 | 0.00 | 0.00 | 63 | 1018.2 |
| 20260504005509 | 18 | 22 | 0.0 | 0.0 | 0.00 | 0.00 | 0.00 | 61 | 1018.2 |
| 20260504005006 | 18 | 22 | 0.0 | 0.0 | 0.00 | 0.00 | 0.00 | 61 | 1018.0 |
| 20260504004504 | 19 | 71 | 0.0 | 0.0 | 0.00 | 0.00 | 0.00 | 59 | 1018.3 |
| 20260504004000 | 19 | 67 | 0.0 | 0.0 | 0.00 | 0.00 | 0.00 | 58 | 1018.2 |
| 20260504003456 | 20 | 54 | 0.0 | 0.0 | 0.00 | 0.00 | 0.00 | 55 | 1018.1 |
| 20260504002954 | 20 | 82 | 0.0 | 0.0 | 0.00 | 0.00 | 0.00 | 54 | 1018.2 |
| 20260504002450 | 20 | 140 | 0.0 | 0.0 | 0.00 | 0.00 | 0.00 | 53 | 1018.1 |
| 20260504001948 | 20 | 36 | 0.0 | 1.6 | 0.00 | 0.00 | 0.00 | 54 | 1018.0 |
| 20260504001445 | 21 | 119 | 0.0 | 0.0 | 0.00 | 0.00 | 0.00 | 53 | 1017.9 |
| 20260504000942 | 21 | 234 | 1.6 | 1.6 | 0.00 | 0.00 | 0.00 | 51 | 1017.9 |
| 20260504000439 | 21 | 270 | 0.0 | 0.0 | 0.00 | 0.00 | 0.00 | 50 | 1018.0 |
| 20260503235936 | 21 | 270 | 0.0 | 0.0 | 0.00 | 0.00 | 0.00 | 50 | 1018.0 |
| 20260503235434 | 21 | 69 | 0.0 | 1.6 | 0.00 | 0.00 | 0.00 | 50 | 1017.8 |
| 20260503234931 | 21 | 240 | 1.6 | 3.2 | 0.00 | 0.00 | 0.00 | 49 | 1017.8 |
| 20260503234428 | 21 | 230 | 1.6 | 1.6 | 0.00 | 0.00 | 0.00 | 48 | 1018.0 |
| 20260503233926 | 22 | 1 | 0.0 | 0.0 | 0.00 | 0.00 | 0.00 | 49 | 1017.9 |
| 20260503233423 | 22 | 149 | 1.6 | 3.2 | 0.00 | 0.00 | 0.00 | 48 | 1017.9 |
| 20260503232919 | -17 | 0.0 | 0.0 | 0.00 | 0.00 | 0.00 | 1017.8 | ||
| 20260503232416 | 22 | 225 | 0.0 | 1.6 | 0.00 | 0.00 | 0.00 | 46 | 1018.1 |
| 20260503231914 | 22 | 225 | 0.0 | 1.6 | 0.00 | 0.00 | 0.00 | 46 | 1018.0 |
| 20260503231411 | 22 | 125 | 1.6 | 4.8 | 0.00 | 0.00 | 0.00 | 46 | 1018.1 |
| 20260503230907 | 22 | 125 | 1.6 | 4.8 | 0.00 | 0.00 | 0.00 | 46 | 1018.0 |
| 20260503230404 | 22 | 171 | 0.0 | 3.2 | 0.00 | 0.00 | 0.00 | 46 | 1017.7 |
| 20260503225902 | 22 | 171 | 0.0 | 3.2 | 0.00 | 0.00 | 0.00 | 46 | 1017.8 |
| 20260503225357 | -17 | 0.0 | 0.0 | 0.00 | 0.00 | 0.00 | 1017.8 | ||
| 20260503224854 | 23 | 203 | 3.2 | 4.8 | 0.00 | 0.00 | 0.00 | 47 | 1017.6 |
| 20260503224351 | 23 | 203 | 3.2 | 4.8 | 0.00 | 0.00 | 0.00 | 47 | 1017.8 |
| 20260503223849 | -17 | 0.0 | 0.0 | 0.00 | 0.00 | 0.00 | 1017.6 | ||
| 20260503223347 | -17 | 0.0 | 0.0 | 0.00 | 0.00 | 0.00 | 1017.6 | ||
| 20260503222842 | 25 | 245 | 4.8 | 6.4 | 0.00 | 0.00 | 0.00 | 34 | 1017.8 |
| 20260503222341 | 25 | 216 | 4.8 | 6.4 | 0.00 | 0.00 | 0.00 | 34 | 1017.7 |
| 20260503221838 | 25 | 201 | 3.2 | 4.8 | 0.00 | 0.00 | 0.00 | 35 | 1017.7 |
| 20260503221337 | 25 | 239 | 1.6 | 9.7 | 0.00 | 0.00 | 0.00 | 36 | 1017.6 |
| 20260503220832 | 25 | 228 | 6.4 | 9.7 | 0.00 | 0.00 | 0.00 | 36 | 1018.0 |
| 20260503220329 | 25 | 271 | 3.2 | 3.2 | 0.00 | 0.00 | 0.00 | 35 | 1017.7 |
| 20260503215826 | 25 | 89 | 1.6 | 4.8 | 0.00 | 0.00 | 0.00 | 39 | 1017.8 |
| 20260503215323 | 25 | 56 | 0.0 | 4.8 | 0.00 | 0.00 | 0.00 | 37 | 1018.0 |
| 20260503214821 | 25 | 220 | 1.6 | 3.2 | 0.00 | 0.00 | 0.00 | 37 | 1018.0 |
| 20260503214318 | 25 | 220 | 1.6 | 3.2 | 0.00 | 0.00 | 0.00 | 37 | 1017.9 |
| 20260503213815 | 26 | 221 | 6.4 | 6.4 | 0.00 | 0.00 | 0.00 | 34 | 1017.8 |
| 20260503213313 | 25 | 5 | 1.6 | 3.2 | 0.00 | 0.00 | 0.00 | 34 | 1018.0 |
| 20260503212810 | 25 | 238 | 3.2 | 9.7 | 0.00 | 0.00 | 0.00 | 33 | 1018.1 |
| 20260503212308 | 25 | 249 | 1.6 | 6.4 | 0.00 | 0.00 | 0.00 | 32 | 1018.0 |
| 20260503211805 | 25 | 243 | 4.8 | 6.4 | 0.00 | 0.00 | 0.00 | 31 | 1018.4 |
| 20260503211301 | 26 | 192 | 6.4 | 9.7 | 0.00 | 0.00 | 0.00 | 33 | 1018.4 |
| 20260503210801 | 26 | 225 | 1.6 | 6.4 | 0.00 | 0.00 | 0.00 | 33 | 1018.4 |
| 20260503210259 | 25 | 282 | 4.8 | 4.8 | 0.00 | 0.00 | 0.00 | 33 | 1018.4 |
| 20260503205754 | 25 | 235 | 8.0 | 11.3 | 0.00 | 0.00 | 0.00 | 36 | 1018.5 |
| 20260503205250 | 25 | 78 | 1.6 | 4.8 | 0.00 | 0.00 | 0.00 | 36 | 1018.5 |
| 20260503204747 | 25 | 191 | 3.2 | 12.9 | 0.00 | 0.00 | 0.00 | 34 | 1018.6 |
| 20260503204245 | 25 | 286 | 3.2 | 6.4 | 0.00 | 0.00 | 0.00 | 34 | 1018.5 |
| 20260503203742 | 25 | 314 | 4.8 | 9.7 | 0.00 | 0.00 | 0.00 | 33 | 1018.5 |
| 20260503203239 | 25 | 298 | 3.2 | 4.8 | 0.00 | 0.00 | 0.00 | 32 | 1018.6 |
| 20260503202736 | 25 | 255 | 6.4 | 6.4 | 0.00 | 0.00 | 0.00 | 33 | 1018.7 |
| 20260503202234 | 25 | 235 | 3.2 | 9.7 | 0.00 | 0.00 | 0.00 | 33 | 1018.7 |
| 20260503201732 | 25 | 312 | 6.4 | 11.3 | 0.00 | 0.00 | 0.00 | 33 | 1018.9 |
| 20260503201229 | 25 | 13 | 1.6 | 9.7 | 0.00 | 0.00 | 0.00 | 33 | 1018.8 |
| 20260503200726 | 25 | 354 | 3.2 | 4.8 | 0.00 | 0.00 | 0.00 | 33 | 1018.8 |
| 20260503200222 | 25 | 210 | 6.4 | 9.7 | 0.00 | 0.00 | 0.00 | 33 | 1018.8 |
| 20260503195719 | 25 | 319 | 3.2 | 4.8 | 0.00 | 0.00 | 0.00 | 34 | 1019.2 |
| 20260503195216 | 25 | 207 | 3.2 | 6.4 | 0.00 | 0.00 | 0.00 | 30 | 1019.4 |
| 20260503194713 | 25 | 153 | 8.0 | 14.5 | 0.00 | 0.00 | 0.00 | 31 | 1019.5 |
| 20260503194209 | 25 | 226 | 3.2 | 6.4 | 0.00 | 0.00 | 0.00 | 32 | 1019.6 |
| 20260503193705 | 25 | 62 | 1.6 | 11.3 | 0.00 | 0.00 | 0.00 | 34 | 1019.6 |
| 20260503193201 | 25 | 279 | 3.2 | 6.4 | 0.00 | 0.00 | 0.00 | 34 | 1019.7 |
| 20260503192657 | 25 | 295 | 3.2 | 6.4 | 0.00 | 0.00 | 0.00 | 35 | 1019.9 |
| 20260503192152 | 25 | 270 | 1.6 | 4.8 | 0.00 | 0.00 | 0.00 | 33 | 1019.7 |
| 20260503191649 | 25 | 319 | 3.2 | 4.8 | 0.00 | 0.00 | 0.00 | 33 | 1019.9 |
| 20260503191147 | 25 | 157 | 1.6 | 4.8 | 0.00 | 0.00 | 0.00 | 34 | 1020.2 |
| 20260503190643 | 25 | 197 | 3.2 | 9.7 | 0.00 | 0.00 | 0.00 | 35 | 1020.2 |
| 20260503190140 | 25 | 335 | 1.6 | 9.7 | 0.00 | 0.00 | 0.00 | 38 | 1020.2 |
| 20260503185637 | 25 | 208 | 6.4 | 11.3 | 0.00 | 0.00 | 0.00 | 33 | 1020.4 |
| 20260503185132 | 25 | 353 | 1.6 | 12.9 | 0.00 | 0.00 | 0.00 | 34 | 1020.4 |
| 20260503184627 | 25 | 171 | 4.8 | 11.3 | 0.00 | 0.00 | 0.00 | 31 | 1020.5 |
| 20260503184124 | 24 | 325 | 3.2 | 11.3 | 0.00 | 0.00 | 0.00 | 35 | 1020.5 |
| 20260503183621 | 25 | 97 | 4.8 | 6.4 | 0.00 | 0.00 | 0.00 | 32 | 1020.5 |
| 20260503183118 | 24 | 184 | 3.2 | 11.3 | 0.00 | 0.00 | 0.00 | 35 | 1020.8 |
| 20260503182616 | 24 | 187 | 1.6 | 6.4 | 0.00 | 0.00 | 0.00 | 34 | 1020.9 |
| 20260503182114 | 24 | 333 | 1.6 | 11.3 | 0.00 | 0.00 | 0.00 | 35 | 1020.9 |
| 20260503181611 | 24 | 352 | 1.6 | 6.4 | 0.00 | 0.00 | 0.00 | 36 | 1020.9 |
| 20260503181107 | 25 | 125 | 3.2 | 4.8 | 0.00 | 0.00 | 0.00 | 33 | 1020.8 |
| 20260503180604 | 23 | 245 | 3.2 | 6.4 | 0.00 | 0.00 | 0.00 | 36 | 1020.7 |
| 20260503175559 | 24 | 204 | 4.8 | 9.7 | 0.00 | 0.00 | 0.00 | 35 | 1020.9 |
| 20260503175056 | 23 | 188 | 3.2 | 4.8 | 0.00 | 0.00 | 0.00 | 35 | 1020.9 |
| 20260503174553 | 24 | 276 | 3.2 | 6.4 | 0.00 | 0.00 | 0.00 | 33 | 1020.9 |
| 20260503174049 | 23 | 294 | 8.0 | 11.3 | 0.00 | 0.00 | 0.00 | 37 | 1020.9 |
| 20260503173544 | 23 | 138 | 6.4 | 11.3 | 0.00 | 0.00 | 0.00 | 36 | 1020.8 |
| 20260503173041 | 23 | 98 | 3.2 | 11.3 | 0.00 | 0.00 | 0.00 | 34 | 1021.0 |
| 20260503172539 | 23 | 82 | 1.6 | 9.7 | 0.00 | 0.00 | 0.00 | 37 | 1021.1 |
| 20260503172036 | 23 | 209 | 6.4 | 17.7 | 0.00 | 0.00 | 0.00 | 38 | 1021.1 |
| 20260503171532 | 23 | 354 | 6.4 | 11.3 | 0.00 | 0.00 | 0.00 | 36 | 1021.3 |
| 20260503171030 | 23 | 288 | 3.2 | 12.9 | 0.00 | 0.00 | 0.00 | 36 | 1021.3 |
| 20260503170526 | 23 | 42 | 4.8 | 16.1 | 0.00 | 0.00 | 0.00 | 36 | 1021.2 |
| 20260503150918 | 21 | 127 | 4.8 | 6.4 | 0.00 | 0.00 | 0.00 | 46 | 1022.2 |
| 20260503150415 | 21 | 242 | 4.8 | 9.7 | 0.00 | 0.00 | 0.00 | 46 | 1022.3 |
| 20260503131308 | -17 | 0.0 | 0.0 | 0.00 | 0.00 | 0.00 | 1021.4 | ||
| 20260503130805 | -17 | 0.0 | 0.0 | 0.00 | 0.00 | 0.00 | 1021.4 | ||
| 20260503130303 | -17 | 0.0 | 0.0 | 0.00 | 0.00 | 0.00 | 1021.1 | ||
| 20260503110656 | 13 | 22 | 1.6 | 3.2 | 0.00 | 0.00 | 0.00 | 78 | 1020.3 |
| 20260503110154 | 13 | 45 | 0.0 | 1.6 | 0.00 | 0.00 | 0.00 | 78 | 1020.7 |
| 20260503100120 | 11 | 79 | 0.0 | 0.0 | 0.00 | 0.00 | 0.00 | 85 | 1020.2 |
| 20260503081510 | 15 | 326 | 0.0 | 3.2 | 0.00 | 0.00 | 0.00 | 68 | 1019.6 |
| 20260503081007 | 15 | 217 | 0.0 | 9.7 | 0.00 | 0.00 | 0.00 | 68 | 1019.5 |
| 20260503080503 | 15 | 356 | 0.0 | 1.6 | 0.00 | 0.00 | 0.00 | 69 | 1019.5 |
| 20260503072939 | 15 | 4 | 0.0 | 1.6 | 0.00 | 0.00 | 0.00 | 69 | 1019.4 |
| 20260503072437 | 15 | 272 | 0.0 | 0.0 | 0.00 | 0.00 | 0.00 | 68 | 1019.6 |
| 20260503071934 | 15 | 275 | 0.0 | 4.8 | 0.00 | 0.00 | 0.00 | 67 | 1019.4 |
| 20260503071431 | 16 | 262 | 3.2 | 4.8 | 0.00 | 0.00 | 0.00 | 66 | 1019.3 |
| 20260503070926 | 16 | 304 | 0.0 | 6.4 | 0.00 | 0.00 | 0.00 | 65 | 1019.6 |
| 20260503070424 | 15 | 324 | 3.2 | 4.8 | 0.00 | 0.00 | 0.00 | 66 | 1019.4 |